sensor_id;sensor_type;location;lat;lon;timestamp;P1;durP1;ratioP1;P2;durP2;ratioP2
32096;SDS011;18610;49.916;8.284;2023-06-10T00:01:14;16.55;;;7.85;;
32096;SDS011;18610;49.916;8.284;2023-06-10T00:03:41;10.35;;;7.80;;
32096;SDS011;18610;49.916;8.284;2023-06-10T00:06:09;14.40;;;8.18;;
32096;SDS011;18610;49.916;8.284;2023-06-10T00:08:37;12.65;;;8.18;;
32096;SDS011;18610;49.916;8.284;2023-06-10T00:11:04;10.98;;;7.68;;
32096;SDS011;18610;49.916;8.284;2023-06-10T00:13:31;15.77;;;7.85;;
32096;SDS011;18610;49.916;8.284;2023-06-10T00:15:58;10.23;;;7.18;;
32096;SDS011;18610;49.916;8.284;2023-06-10T00:18:25;12.50;;;7.22;;
32096;SDS011;18610;49.916;8.284;2023-06-10T00:20:52;12.93;;;8.27;;
32096;SDS011;18610;49.916;8.284;2023-06-10T00:23:20;10.90;;;7.32;;
32096;SDS011;18610;49.916;8.284;2023-06-10T00:25:49;11.52;;;7.85;;
32096;SDS011;18610;49.916;8.284;2023-06-10T00:28:15;10.57;;;7.60;;
32096;SDS011;18610;49.916;8.284;2023-06-10T00:30:42;10.93;;;8.25;;
32096;SDS011;18610;49.916;8.284;2023-06-10T00:33:09;15.07;;;8.35;;
32096;SDS011;18610;49.916;8.284;2023-06-10T00:35:35;12.20;;;7.93;;
32096;SDS011;18610;49.916;8.284;2023-06-10T00:38:02;13.88;;;8.30;;
32096;SDS011;18610;49.916;8.284;2023-06-10T00:40:29;15.07;;;7.88;;
32096;SDS011;18610;49.916;8.284;2023-06-10T00:42:57;10.50;;;7.47;;
32096;SDS011;18610;49.916;8.284;2023-06-10T00:45:23;11.40;;;7.82;;
32096;SDS011;18610;49.916;8.284;2023-06-10T00:47:50;16.50;;;8.73;;
32096;SDS011;18610;49.916;8.284;2023-06-10T00:50:17;13.73;;;8.85;;
32096;SDS011;18610;49.916;8.284;2023-06-10T00:52:44;10.77;;;7.90;;
32096;SDS011;18610;49.916;8.284;2023-06-10T00:55:13;14.43;;;8.23;;
32096;SDS011;18610;49.916;8.284;2023-06-10T00:57:41;13.27;;;8.27;;
32096;SDS011;18610;49.916;8.284;2023-06-10T01:00:11;11.88;;;7.60;;
32096;SDS011;18610;49.916;8.284;2023-06-10T01:02:38;12.85;;;7.97;;
32096;SDS011;18610;49.916;8.284;2023-06-10T01:05:05;11.93;;;8.52;;
32096;SDS011;18610;49.916;8.284;2023-06-10T01:07:33;13.32;;;8.02;;
32096;SDS011;18610;49.916;8.284;2023-06-10T01:10:05;15.60;;;9.02;;
32096;SDS011;18610;49.916;8.284;2023-06-10T01:12:39;14.82;;;10.55;;
32096;SDS011;18610;49.916;8.284;2023-06-10T01:15:14;18.63;;;9.10;;
32096;SDS011;18610;49.916;8.284;2023-06-10T01:17:54;12.63;;;8.50;;
32096;SDS011;18610;49.916;8.284;2023-06-10T01:20:23;19.90;;;8.90;;
32096;SDS011;18610;49.916;8.284;2023-06-10T01:22:53;18.13;;;8.45;;
32096;SDS011;18610;49.916;8.284;2023-06-10T01:25:20;12.27;;;8.80;;
32096;SDS011;18610;49.916;8.284;2023-06-10T01:27:53;17.00;;;8.70;;
32096;SDS011;18610;49.916;8.284;2023-06-10T01:30:25;14.50;;;8.63;;
32096;SDS011;18610;49.916;8.284;2023-06-10T01:32:55;11.48;;;8.13;;
32096;SDS011;18610;49.916;8.284;2023-06-10T01:35:25;15.77;;;8.98;;
32096;SDS011;18610;49.916;8.284;2023-06-10T01:37:55;13.48;;;8.23;;
32096;SDS011;18610;49.916;8.284;2023-06-10T01:40:24;10.45;;;8.77;;
32096;SDS011;18610;49.916;8.284;2023-06-10T01:42:52;16.00;;;9.15;;
32096;SDS011;18610;49.916;8.284;2023-06-10T01:45:19;15.70;;;8.80;;
32096;SDS011;18610;49.916;8.284;2023-06-10T01:47:46;14.18;;;9.27;;
32096;SDS011;18610;49.916;8.284;2023-06-10T01:50:12;11.82;;;8.90;;
32096;SDS011;18610;49.916;8.284;2023-06-10T01:52:40;18.05;;;8.57;;
32096;SDS011;18610;49.916;8.284;2023-06-10T01:55:08;15.00;;;9.07;;
32096;SDS011;18610;49.916;8.284;2023-06-10T01:57:34;14.45;;;9.55;;
32096;SDS011;18610;49.916;8.284;2023-06-10T02:00:01;12.77;;;9.80;;
32096;SDS011;18610;49.916;8.284;2023-06-10T02:02:29;19.80;;;8.88;;
32096;SDS011;18610;49.916;8.284;2023-06-10T02:04:55;12.10;;;8.55;;
32096;SDS011;18610;49.916;8.284;2023-06-10T02:07:22;14.23;;;8.98;;
32096;SDS011;18610;49.916;8.284;2023-06-10T02:09:49;15.70;;;9.77;;
32096;SDS011;18610;49.916;8.284;2023-06-10T02:12:17;12.60;;;8.63;;
32096;SDS011;18610;49.916;8.284;2023-06-10T02:14:44;14.18;;;8.65;;
32096;SDS011;18610;49.916;8.284;2023-06-10T02:17:10;12.93;;;8.93;;
32096;SDS011;18610;49.916;8.284;2023-06-10T02:19:39;20.17;;;9.00;;
32096;SDS011;18610;49.916;8.284;2023-06-10T02:22:08;13.95;;;8.55;;
32096;SDS011;18610;49.916;8.284;2023-06-10T02:24:35;11.50;;;8.68;;
32096;SDS011;18610;49.916;8.284;2023-06-10T02:27:03;12.07;;;8.85;;
32096;SDS011;18610;49.916;8.284;2023-06-10T02:29:33;16.70;;;9.70;;
32096;SDS011;18610;49.916;8.284;2023-06-10T02:32:00;13.07;;;9.20;;
32096;SDS011;18610;49.916;8.284;2023-06-10T02:34:27;11.95;;;9.23;;
32096;SDS011;18610;49.916;8.284;2023-06-10T02:36:54;13.80;;;9.07;;
32096;SDS011;18610;49.916;8.284;2023-06-10T02:39:21;11.82;;;9.43;;
32096;SDS011;18610;49.916;8.284;2023-06-10T02:41:48;14.65;;;9.23;;
32096;SDS011;18610;49.916;8.284;2023-06-10T02:44:15;10.65;;;8.35;;
32096;SDS011;18610;49.916;8.284;2023-06-10T02:46:43;11.35;;;8.82;;
32096;SDS011;18610;49.916;8.284;2023-06-10T02:49:09;12.10;;;8.75;;
32096;SDS011;18610;49.916;8.284;2023-06-10T02:51:37;13.45;;;9.15;;
32096;SDS011;18610;49.916;8.284;2023-06-10T02:54:04;14.93;;;9.27;;
32096;SDS011;18610;49.916;8.284;2023-06-10T02:56:30;15.45;;;9.52;;
32096;SDS011;18610;49.916;8.284;2023-06-10T02:58:58;12.50;;;8.65;;
32096;SDS011;18610;49.916;8.284;2023-06-10T03:01:25;14.43;;;9.27;;
32096;SDS011;18610;49.916;8.284;2023-06-10T03:03:53;10.88;;;8.85;;
32096;SDS011;18610;49.916;8.284;2023-06-10T03:06:21;15.57;;;10.15;;
32096;SDS011;18610;49.916;8.284;2023-06-10T03:08:50;13.98;;;9.75;;
32096;SDS011;18610;49.916;8.284;2023-06-10T03:11:16;12.13;;;9.55;;
32096;SDS011;18610;49.916;8.284;2023-06-10T03:13:44;14.10;;;9.77;;
32096;SDS011;18610;49.916;8.284;2023-06-10T03:16:11;15.32;;;9.70;;
32096;SDS011;18610;49.916;8.284;2023-06-10T03:18:38;15.15;;;9.57;;
32096;SDS011;18610;49.916;8.284;2023-06-10T03:21:06;19.48;;;9.82;;
32096;SDS011;18610;49.916;8.284;2023-06-10T03:23:33;10.82;;;8.32;;
32096;SDS011;18610;49.916;8.284;2023-06-10T03:26:00;22.00;;;10.07;;
32096;SDS011;18610;49.916;8.284;2023-06-10T03:28:27;16.75;;;9.95;;
32096;SDS011;18610;49.916;8.284;2023-06-10T03:30:54;17.15;;;10.35;;
32096;SDS011;18610;49.916;8.284;2023-06-10T03:33:21;14.45;;;10.20;;
32096;SDS011;18610;49.916;8.284;2023-06-10T03:35:48;13.77;;;10.07;;
32096;SDS011;18610;49.916;8.284;2023-06-10T03:38:16;16.00;;;10.05;;
32096;SDS011;18610;49.916;8.284;2023-06-10T03:40:43;16.10;;;10.27;;
32096;SDS011;18610;49.916;8.284;2023-06-10T03:43:09;12.75;;;9.73;;
32096;SDS011;18610;49.916;8.284;2023-06-10T03:45:36;18.50;;;9.02;;
32096;SDS011;18610;49.916;8.284;2023-06-10T03:48:03;10.95;;;8.23;;
32096;SDS011;18610;49.916;8.284;2023-06-10T03:50:31;12.45;;;9.30;;
32096;SDS011;18610;49.916;8.284;2023-06-10T03:52:57;13.25;;;8.70;;
32096;SDS011;18610;49.916;8.284;2023-06-10T03:55:27;13.13;;;9.57;;
32096;SDS011;18610;49.916;8.284;2023-06-10T03:57:53;13.90;;;9.07;;
32096;SDS011;18610;49.916;8.284;2023-06-10T04:00:21;16.15;;;9.27;;
32096;SDS011;18610;49.916;8.284;2023-06-10T04:02:47;14.88;;;9.13;;
32096;SDS011;18610;49.916;8.284;2023-06-10T04:05:17;10.93;;;8.18;;
32096;SDS011;18610;49.916;8.284;2023-06-10T04:07:45;11.27;;;8.10;;
32096;SDS011;18610;49.916;8.284;2023-06-10T04:10:13;10.85;;;8.55;;
32096;SDS011;18610;49.916;8.284;2023-06-10T04:12:42;10.40;;;8.40;;
32096;SDS011;18610;49.916;8.284;2023-06-10T04:15:09;14.02;;;9.32;;
32096;SDS011;18610;49.916;8.284;2023-06-10T04:17:37;16.23;;;8.65;;
32096;SDS011;18610;49.916;8.284;2023-06-10T04:20:04;10.90;;;8.07;;
32096;SDS011;18610;49.916;8.284;2023-06-10T04:22:33;12.20;;;7.80;;
32096;SDS011;18610;49.916;8.284;2023-06-10T04:24:59;13.70;;;8.45;;
32096;SDS011;18610;49.916;8.284;2023-06-10T04:27:26;11.30;;;8.38;;
32096;SDS011;18610;49.916;8.284;2023-06-10T04:29:54;10.52;;;7.80;;
32096;SDS011;18610;49.916;8.284;2023-06-10T04:32:21;13.07;;;8.45;;
32096;SDS011;18610;49.916;8.284;2023-06-10T04:34:48;15.93;;;9.07;;
32096;SDS011;18610;49.916;8.284;2023-06-10T04:37:15;14.15;;;8.27;;
32096;SDS011;18610;49.916;8.284;2023-06-10T04:39:41;13.65;;;7.72;;
32096;SDS011;18610;49.916;8.284;2023-06-10T04:42:08;15.05;;;8.88;;
32096;SDS011;18610;49.916;8.284;2023-06-10T04:44:35;12.68;;;8.35;;
32096;SDS011;18610;49.916;8.284;2023-06-10T04:47:03;14.02;;;8.65;;
32096;SDS011;18610;49.916;8.284;2023-06-10T04:49:31;11.77;;;8.43;;
32096;SDS011;18610;49.916;8.284;2023-06-10T04:51:58;13.30;;;8.32;;
32096;SDS011;18610;49.916;8.284;2023-06-10T04:54:25;16.13;;;8.38;;
32096;SDS011;18610;49.916;8.284;2023-06-10T04:56:52;14.77;;;8.40;;
32096;SDS011;18610;49.916;8.284;2023-06-10T04:59:19;13.00;;;8.18;;
32096;SDS011;18610;49.916;8.284;2023-06-10T05:01:46;15.40;;;6.72;;
32096;SDS011;18610;49.916;8.284;2023-06-10T05:04:15;15.05;;;7.40;;
32096;SDS011;18610;49.916;8.284;2023-06-10T05:06:41;14.52;;;8.07;;
32096;SDS011;18610;49.916;8.284;2023-06-10T05:09:09;11.45;;;7.82;;
32096;SDS011;18610;49.916;8.284;2023-06-10T05:11:36;9.27;;;6.80;;
32096;SDS011;18610;49.916;8.284;2023-06-10T05:14:02;14.50;;;7.13;;
32096;SDS011;18610;49.916;8.284;2023-06-10T05:16:29;9.15;;;6.72;;
32096;SDS011;18610;49.916;8.284;2023-06-10T05:18:56;11.80;;;7.50;;
32096;SDS011;18610;49.916;8.284;2023-06-10T05:21:24;14.18;;;6.80;;
32096;SDS011;18610;49.916;8.284;2023-06-10T05:23:50;9.05;;;6.75;;
32096;SDS011;18610;49.916;8.284;2023-06-10T05:26:17;9.40;;;7.03;;
32096;SDS011;18610;49.916;8.284;2023-06-10T05:28:44;11.98;;;7.07;;
32096;SDS011;18610;49.916;8.284;2023-06-10T05:31:10;10.27;;;6.38;;
32096;SDS011;18610;49.916;8.284;2023-06-10T05:33:38;9.38;;;6.35;;
32096;SDS011;18610;49.916;8.284;2023-06-10T05:36:05;10.73;;;5.68;;
32096;SDS011;18610;49.916;8.284;2023-06-10T05:38:33;9.73;;;5.70;;
32096;SDS011;18610;49.916;8.284;2023-06-10T05:41:00;10.75;;;6.93;;
32096;SDS011;18610;49.916;8.284;2023-06-10T05:43:27;11.52;;;6.32;;
32096;SDS011;18610;49.916;8.284;2023-06-10T05:45:53;7.65;;;5.47;;
32096;SDS011;18610;49.916;8.284;2023-06-10T05:48:20;14.32;;;6.30;;
32096;SDS011;18610;49.916;8.284;2023-06-10T05:50:47;19.15;;;6.72;;
32096;SDS011;18610;49.916;8.284;2023-06-10T05:53:14;11.18;;;6.25;;
32096;SDS011;18610;49.916;8.284;2023-06-10T05:55:42;8.68;;;6.50;;
32096;SDS011;18610;49.916;8.284;2023-06-10T05:58:09;12.05;;;6.55;;
32096;SDS011;18610;49.916;8.284;2023-06-10T06:00:37;12.85;;;6.45;;
32096;SDS011;18610;49.916;8.284;2023-06-10T06:03:05;10.75;;;5.97;;
32096;SDS011;18610;49.916;8.284;2023-06-10T06:05:32;8.23;;;5.40;;
32096;SDS011;18610;49.916;8.284;2023-06-10T06:08:00;10.27;;;6.57;;
32096;SDS011;18610;49.916;8.284;2023-06-10T06:10:27;13.88;;;6.75;;
32096;SDS011;18610;49.916;8.284;2023-06-10T06:12:55;7.43;;;5.38;;
32096;SDS011;18610;49.916;8.284;2023-06-10T06:15:22;8.70;;;5.97;;
32096;SDS011;18610;49.916;8.284;2023-06-10T06:17:49;8.30;;;6.30;;
32096;SDS011;18610;49.916;8.284;2023-06-10T06:20:17;7.80;;;5.88;;
32096;SDS011;18610;49.916;8.284;2023-06-10T06:22:44;8.10;;;5.82;;
32096;SDS011;18610;49.916;8.284;2023-06-10T06:25:11;9.07;;;5.90;;
32096;SDS011;18610;49.916;8.284;2023-06-10T06:27:37;9.40;;;6.60;;
32096;SDS011;18610;49.916;8.284;2023-06-10T06:30:06;7.72;;;5.82;;
32096;SDS011;18610;49.916;8.284;2023-06-10T06:32:34;8.75;;;5.32;;
32096;SDS011;18610;49.916;8.284;2023-06-10T06:35:00;9.02;;;5.93;;
32096;SDS011;18610;49.916;8.284;2023-06-10T06:37:27;10.65;;;6.07;;
32096;SDS011;18610;49.916;8.284;2023-06-10T06:39:54;16.27;;;5.68;;
32096;SDS011;18610;49.916;8.284;2023-06-10T06:42:20;6.30;;;5.55;;
32096;SDS011;18610;49.916;8.284;2023-06-10T06:44:47;8.27;;;5.65;;
32096;SDS011;18610;49.916;8.284;2023-06-10T06:47:15;7.43;;;5.43;;
32096;SDS011;18610;49.916;8.284;2023-06-10T06:49:44;12.63;;;5.80;;
32096;SDS011;18610;49.916;8.284;2023-06-10T06:52:11;7.78;;;5.75;;
32096;SDS011;18610;49.916;8.284;2023-06-10T06:54:38;11.57;;;6.10;;
32096;SDS011;18610;49.916;8.284;2023-06-10T06:57:05;9.68;;;5.68;;
32096;SDS011;18610;49.916;8.284;2023-06-10T06:59:33;8.27;;;5.72;;
32096;SDS011;18610;49.916;8.284;2023-06-10T07:01:59;25.00;;;6.90;;
32096;SDS011;18610;49.916;8.284;2023-06-10T07:04:27;7.55;;;5.95;;
32096;SDS011;18610;49.916;8.284;2023-06-10T07:06:55;6.55;;;5.22;;
32096;SDS011;18610;49.916;8.284;2023-06-10T07:09:22;11.57;;;6.30;;
32096;SDS011;18610;49.916;8.284;2023-06-10T07:11:48;14.18;;;5.75;;
32096;SDS011;18610;49.916;8.284;2023-06-10T07:14:15;12.98;;;6.18;;
32096;SDS011;18610;49.916;8.284;2023-06-10T07:16:42;10.80;;;5.35;;
32096;SDS011;18610;49.916;8.284;2023-06-10T07:19:10;8.90;;;5.85;;
32096;SDS011;18610;49.916;8.284;2023-06-10T07:21:38;11.52;;;5.57;;
32096;SDS011;18610;49.916;8.284;2023-06-10T07:24:05;7.45;;;5.20;;
32096;SDS011;18610;49.916;8.284;2023-06-10T07:26:32;9.27;;;5.45;;
32096;SDS011;18610;49.916;8.284;2023-06-10T07:28:59;14.63;;;5.53;;
32096;SDS011;18610;49.916;8.284;2023-06-10T07:31:25;13.18;;;6.10;;
32096;SDS011;18610;49.916;8.284;2023-06-10T07:33:52;8.93;;;5.78;;
32096;SDS011;18610;49.916;8.284;2023-06-10T07:36:19;10.27;;;5.65;;
32096;SDS011;18610;49.916;8.284;2023-06-10T07:38:47;8.27;;;5.93;;
32096;SDS011;18610;49.916;8.284;2023-06-10T07:41:14;7.55;;;5.95;;
32096;SDS011;18610;49.916;8.284;2023-06-10T07:43:42;10.95;;;5.47;;
32096;SDS011;18610;49.916;8.284;2023-06-10T07:46:09;9.60;;;5.50;;
32096;SDS011;18610;49.916;8.284;2023-06-10T07:48:36;8.20;;;6.00;;
32096;SDS011;18610;49.916;8.284;2023-06-10T07:51:03;9.77;;;6.22;;
32096;SDS011;18610;49.916;8.284;2023-06-10T07:53:29;9.48;;;6.63;;
32096;SDS011;18610;49.916;8.284;2023-06-10T07:55:57;10.10;;;5.65;;
32096;SDS011;18610;49.916;8.284;2023-06-10T07:58:25;12.63;;;6.28;;
32096;SDS011;18610;49.916;8.284;2023-06-10T08:00:52;9.00;;;5.70;;
32096;SDS011;18610;49.916;8.284;2023-06-10T08:03:20;6.32;;;4.95;;
32096;SDS011;18610;49.916;8.284;2023-06-10T08:05:47;9.32;;;5.38;;
32096;SDS011;18610;49.916;8.284;2023-06-10T08:08:14;7.82;;;5.88;;
32096;SDS011;18610;49.916;8.284;2023-06-10T08:10:40;9.73;;;5.47;;
32096;SDS011;18610;49.916;8.284;2023-06-10T08:13:08;6.65;;;5.35;;
32096;SDS011;18610;49.916;8.284;2023-06-10T08:15:35;8.90;;;5.40;;
32096;SDS011;18610;49.916;8.284;2023-06-10T08:18:02;10.07;;;6.00;;
32096;SDS011;18610;49.916;8.284;2023-06-10T08:20:29;8.80;;;6.00;;
32096;SDS011;18610;49.916;8.284;2023-06-10T08:22:55;6.93;;;5.60;;
32096;SDS011;18610;49.916;8.284;2023-06-10T08:25:23;10.23;;;6.00;;
32096;SDS011;18610;49.916;8.284;2023-06-10T08:27:49;12.00;;;5.85;;
32096;SDS011;18610;49.916;8.284;2023-06-10T08:30:18;9.73;;;6.07;;
32096;SDS011;18610;49.916;8.284;2023-06-10T08:32:45;9.63;;;5.82;;
32096;SDS011;18610;49.916;8.284;2023-06-10T08:35:11;15.57;;;6.05;;
32096;SDS011;18610;49.916;8.284;2023-06-10T08:37:38;10.38;;;6.00;;
32096;SDS011;18610;49.916;8.284;2023-06-10T08:40:05;10.52;;;5.47;;
32096;SDS011;18610;49.916;8.284;2023-06-10T08:42:35;13.13;;;6.03;;
32096;SDS011;18610;49.916;8.284;2023-06-10T08:45:05;8.65;;;5.95;;
32096;SDS011;18610;49.916;8.284;2023-06-10T08:47:37;9.75;;;5.03;;
32096;SDS011;18610;49.916;8.284;2023-06-10T08:50:07;12.43;;;6.57;;
32096;SDS011;18610;49.916;8.284;2023-06-10T08:52:35;7.18;;;5.78;;
32096;SDS011;18610;49.916;8.284;2023-06-10T08:55:03;6.80;;;5.47;;
32096;SDS011;18610;49.916;8.284;2023-06-10T08:57:36;7.43;;;5.63;;
32096;SDS011;18610;49.916;8.284;2023-06-10T09:00:03;13.68;;;5.80;;
32096;SDS011;18610;49.916;8.284;2023-06-10T09:02:32;11.98;;;5.40;;
32096;SDS011;18610;49.916;8.284;2023-06-10T09:05:02;7.03;;;5.60;;
32096;SDS011;18610;49.916;8.284;2023-06-10T09:07:29;8.25;;;6.57;;
32096;SDS011;18610;49.916;8.284;2023-06-10T09:09:59;9.35;;;5.85;;
32096;SDS011;18610;49.916;8.284;2023-06-10T09:12:31;8.68;;;5.65;;
32096;SDS011;18610;49.916;8.284;2023-06-10T09:14:59;7.97;;;5.65;;
32096;SDS011;18610;49.916;8.284;2023-06-10T09:17:25;17.95;;;6.18;;
32096;SDS011;18610;49.916;8.284;2023-06-10T09:19:53;10.80;;;5.72;;
32096;SDS011;18610;49.916;8.284;2023-06-10T09:22:22;11.18;;;5.53;;
32096;SDS011;18610;49.916;8.284;2023-06-10T09:24:50;10.05;;;6.30;;
32096;SDS011;18610;49.916;8.284;2023-06-10T09:27:18;11.20;;;5.82;;
32096;SDS011;18610;49.916;8.284;2023-06-10T09:29:48;11.95;;;5.90;;
32096;SDS011;18610;49.916;8.284;2023-06-10T09:32:18;9.50;;;5.80;;
32096;SDS011;18610;49.916;8.284;2023-06-10T09:34:46;8.15;;;5.45;;
32096;SDS011;18610;49.916;8.284;2023-06-10T09:37:13;23.98;;;5.85;;
32096;SDS011;18610;49.916;8.284;2023-06-10T09:39:52;8.00;;;5.50;;
32096;SDS011;18610;49.916;8.284;2023-06-10T09:42:30;13.35;;;6.22;;
32096;SDS011;18610;49.916;8.284;2023-06-10T09:44:59;8.25;;;6.00;;
32096;SDS011;18610;49.916;8.284;2023-06-10T09:47:26;14.48;;;5.93;;
32096;SDS011;18610;49.916;8.284;2023-06-10T09:49:52;9.20;;;5.75;;
32096;SDS011;18610;49.916;8.284;2023-06-10T09:52:23;10.35;;;5.38;;
32096;SDS011;18610;49.916;8.284;2023-06-10T09:54:52;7.00;;;5.70;;
32096;SDS011;18610;49.916;8.284;2023-06-10T09:57:19;12.93;;;5.72;;
32096;SDS011;18610;49.916;8.284;2023-06-10T09:59:47;9.80;;;5.45;;
32096;SDS011;18610;49.916;8.284;2023-06-10T10:02:14;6.05;;;5.05;;
32096;SDS011;18610;49.916;8.284;2023-06-10T10:04:41;12.18;;;5.15;;
32096;SDS011;18610;49.916;8.284;2023-06-10T10:07:08;14.32;;;5.25;;
32096;SDS011;18610;49.916;8.284;2023-06-10T10:09:35;7.15;;;5.20;;
32096;SDS011;18610;49.916;8.284;2023-06-10T10:12:04;12.43;;;5.82;;
32096;SDS011;18610;49.916;8.284;2023-06-10T10:14:36;8.75;;;5.53;;
32096;SDS011;18610;49.916;8.284;2023-06-10T10:17:04;8.18;;;4.75;;
32096;SDS011;18610;49.916;8.284;2023-06-10T10:19:37;8.80;;;4.45;;
32096;SDS011;18610;49.916;8.284;2023-06-10T10:22:10;7.18;;;4.72;;
32096;SDS011;18610;49.916;8.284;2023-06-10T10:24:46;10.50;;;4.88;;
32096;SDS011;18610;49.916;8.284;2023-06-10T10:27:19;13.02;;;5.07;;
32096;SDS011;18610;49.916;8.284;2023-06-10T10:29:50;8.18;;;4.70;;
32096;SDS011;18610;49.916;8.284;2023-06-10T10:32:18;11.88;;;5.30;;
32096;SDS011;18610;49.916;8.284;2023-06-10T10:34:53;5.72;;;4.88;;
32096;SDS011;18610;49.916;8.284;2023-06-10T10:37:24;7.28;;;5.40;;
32096;SDS011;18610;49.916;8.284;2023-06-10T10:39:52;13.82;;;4.80;;
32096;SDS011;18610;49.916;8.284;2023-06-10T10:42:20;12.23;;;5.40;;
32096;SDS011;18610;49.916;8.284;2023-06-10T10:44:47;5.07;;;4.28;;
32096;SDS011;18610;49.916;8.284;2023-06-10T10:47:17;7.82;;;4.95;;
32096;SDS011;18610;49.916;8.284;2023-06-10T10:49:48;4.78;;;4.28;;
32096;SDS011;18610;49.916;8.284;2023-06-10T10:52:17;7.97;;;4.95;;
32096;SDS011;18610;49.916;8.284;2023-06-10T10:54:44;5.30;;;4.80;;
32096;SDS011;18610;49.916;8.284;2023-06-10T10:57:13;10.80;;;4.78;;
32096;SDS011;18610;49.916;8.284;2023-06-10T10:59:55;7.47;;;4.78;;
32096;SDS011;18610;49.916;8.284;2023-06-10T11:05:04;10.13;;;5.22;;
32096;SDS011;18610;49.916;8.284;2023-06-10T11:07:32;9.25;;;4.95;;
32096;SDS011;18610;49.916;8.284;2023-06-10T11:10:01;8.55;;;4.57;;
32096;SDS011;18610;49.916;8.284;2023-06-10T11:12:41;9.15;;;4.53;;
32096;SDS011;18610;49.916;8.284;2023-06-10T11:15:19;6.38;;;4.68;;
32096;SDS011;18610;49.916;8.284;2023-06-10T11:23:30;7.47;;;4.88;;
32096;SDS011;18610;49.916;8.284;2023-06-10T11:26:20;8.82;;;5.28;;
32096;SDS011;18610;49.916;8.284;2023-06-10T11:29:00;8.18;;;5.10;;
32096;SDS011;18610;49.916;8.284;2023-06-10T11:31:44;5.35;;;4.45;;
32096;SDS011;18610;49.916;8.284;2023-06-10T11:34:15;9.63;;;5.35;;
32096;SDS011;18610;49.916;8.284;2023-06-10T11:36:48;10.30;;;5.20;;
32096;SDS011;18610;49.916;8.284;2023-06-10T11:39:15;9.27;;;4.78;;
32096;SDS011;18610;49.916;8.284;2023-06-10T11:41:45;7.97;;;4.90;;
32096;SDS011;18610;49.916;8.284;2023-06-10T11:44:12;7.28;;;4.32;;
32096;SDS011;18610;49.916;8.284;2023-06-10T11:46:41;8.98;;;4.88;;
32096;SDS011;18610;49.916;8.284;2023-06-10T11:49:09;11.00;;;5.10;;
32096;SDS011;18610;49.916;8.284;2023-06-10T11:51:38;5.47;;;4.55;;
32096;SDS011;18610;49.916;8.284;2023-06-10T11:54:08;8.68;;;4.75;;
32096;SDS011;18610;49.916;8.284;2023-06-10T11:56:35;9.38;;;5.22;;
32096;SDS011;18610;49.916;8.284;2023-06-10T11:59:04;5.43;;;4.85;;
32096;SDS011;18610;49.916;8.284;2023-06-10T12:01:32;6.70;;;4.75;;
32096;SDS011;18610;49.916;8.284;2023-06-10T12:04:02;5.85;;;5.03;;
32096;SDS011;18610;49.916;8.284;2023-06-10T12:06:41;9.57;;;4.45;;
32096;SDS011;18610;49.916;8.284;2023-06-10T12:09:18;12.60;;;5.55;;
32096;SDS011;18610;49.916;8.284;2023-06-10T12:11:48;5.22;;;4.55;;
32096;SDS011;18610;49.916;8.284;2023-06-10T12:14:15;10.35;;;5.18;;
32096;SDS011;18610;49.916;8.284;2023-06-10T12:16:48;18.92;;;6.43;;
32096;SDS011;18610;49.916;8.284;2023-06-10T12:19:15;7.22;;;4.68;;
32096;SDS011;18610;49.916;8.284;2023-06-10T12:21:43;7.53;;;4.20;;
32096;SDS011;18610;49.916;8.284;2023-06-10T12:24:11;5.43;;;4.38;;
32096;SDS011;18610;49.916;8.284;2023-06-10T12:26:39;7.07;;;3.80;;
32096;SDS011;18610;49.916;8.284;2023-06-10T12:29:19;5.32;;;4.13;;
32096;SDS011;18610;49.916;8.284;2023-06-10T12:31:52;5.13;;;4.15;;
32096;SDS011;18610;49.916;8.284;2023-06-10T12:34:27;6.22;;;3.70;;
32096;SDS011;18610;49.916;8.284;2023-06-10T12:37:03;7.82;;;3.47;;
32096;SDS011;18610;49.916;8.284;2023-06-10T12:39:30;4.63;;;3.63;;
32096;SDS011;18610;49.916;8.284;2023-06-10T12:41:58;12.00;;;3.83;;
32096;SDS011;18610;49.916;8.284;2023-06-10T12:44:28;6.15;;;3.55;;
32096;SDS011;18610;49.916;8.284;2023-06-10T12:46:56;8.88;;;3.75;;
32096;SDS011;18610;49.916;8.284;2023-06-10T12:49:22;24.88;;;5.68;;
32096;SDS011;18610;49.916;8.284;2023-06-10T12:51:50;11.48;;;3.55;;
32096;SDS011;18610;49.916;8.284;2023-06-10T12:54:18;4.85;;;3.45;;
32096;SDS011;18610;49.916;8.284;2023-06-10T12:56:44;3.72;;;3.35;;
32096;SDS011;18610;49.916;8.284;2023-06-10T12:59:11;5.43;;;3.10;;
32096;SDS011;18610;49.916;8.284;2023-06-10T13:01:38;4.57;;;3.42;;
32096;SDS011;18610;49.916;8.284;2023-06-10T13:04:05;8.35;;;5.90;;
32096;SDS011;18610;49.916;8.284;2023-06-10T13:06:32;7.07;;;3.55;;
32096;SDS011;18610;49.916;8.284;2023-06-10T13:09:01;5.78;;;3.60;;
32096;SDS011;18610;49.916;8.284;2023-06-10T13:11:31;12.05;;;3.60;;
32096;SDS011;18610;49.916;8.284;2023-06-10T13:13:58;6.22;;;3.83;;
32096;SDS011;18610;49.916;8.284;2023-06-10T13:16:25;3.95;;;3.58;;
32096;SDS011;18610;49.916;8.284;2023-06-10T13:18:52;6.60;;;3.92;;
32096;SDS011;18610;49.916;8.284;2023-06-10T13:21:19;8.57;;;3.47;;
32096;SDS011;18610;49.916;8.284;2023-06-10T13:23:46;4.40;;;3.25;;
32096;SDS011;18610;49.916;8.284;2023-06-10T13:26:13;5.07;;;3.40;;
32096;SDS011;18610;49.916;8.284;2023-06-10T13:28:42;7.43;;;3.60;;
32096;SDS011;18610;49.916;8.284;2023-06-10T13:31:09;8.93;;;3.58;;
32096;SDS011;18610;49.916;8.284;2023-06-10T13:33:36;5.20;;;3.90;;
32096;SDS011;18610;49.916;8.284;2023-06-10T13:36:03;13.52;;;3.70;;
32096;SDS011;18610;49.916;8.284;2023-06-10T13:38:30;4.85;;;3.90;;
32096;SDS011;18610;49.916;8.284;2023-06-10T13:40:57;3.53;;;3.17;;
32096;SDS011;18610;49.916;8.284;2023-06-10T13:43:23;4.82;;;3.60;;
32096;SDS011;18610;49.916;8.284;2023-06-10T13:45:51;5.00;;;3.38;;
32096;SDS011;18610;49.916;8.284;2023-06-10T13:48:18;6.60;;;3.42;;
32096;SDS011;18610;49.916;8.284;2023-06-10T13:50:46;8.75;;;3.83;;
32096;SDS011;18610;49.916;8.284;2023-06-10T13:53:13;6.68;;;3.45;;
32096;SDS011;18610;49.916;8.284;2023-06-10T13:55:39;5.22;;;3.70;;
32096;SDS011;18610;49.916;8.284;2023-06-10T13:58:06;4.97;;;3.08;;
32096;SDS011;18610;49.916;8.284;2023-06-10T14:00:33;12.38;;;3.85;;
32096;SDS011;18610;49.916;8.284;2023-06-10T14:03:01;4.55;;;3.38;;
32096;SDS011;18610;49.916;8.284;2023-06-10T14:05:28;4.28;;;3.28;;
32096;SDS011;18610;49.916;8.284;2023-06-10T14:07:55;5.32;;;3.42;;
32096;SDS011;18610;49.916;8.284;2023-06-10T14:10:22;5.13;;;3.60;;
32096;SDS011;18610;49.916;8.284;2023-06-10T14:12:49;5.47;;;3.45;;
32096;SDS011;18610;49.916;8.284;2023-06-10T14:15:16;5.50;;;3.85;;
32096;SDS011;18610;49.916;8.284;2023-06-10T14:17:43;5.45;;;3.42;;
32096;SDS011;18610;49.916;8.284;2023-06-10T14:20:11;4.68;;;3.78;;
32096;SDS011;18610;49.916;8.284;2023-06-10T14:22:38;5.03;;;3.88;;
32096;SDS011;18610;49.916;8.284;2023-06-10T14:25:06;6.93;;;4.25;;
32096;SDS011;18610;49.916;8.284;2023-06-10T14:27:33;15.88;;;4.53;;
32096;SDS011;18610;49.916;8.284;2023-06-10T14:30:00;8.88;;;4.45;;
32096;SDS011;18610;49.916;8.284;2023-06-10T14:32:27;6.22;;;4.20;;
32096;SDS011;18610;49.916;8.284;2023-06-10T14:34:54;6.30;;;3.88;;
32096;SDS011;18610;49.916;8.284;2023-06-10T14:37:22;3.72;;;3.30;;
32096;SDS011;18610;49.916;8.284;2023-06-10T14:39:49;6.70;;;3.58;;
32096;SDS011;18610;49.916;8.284;2023-06-10T14:42:16;5.00;;;3.88;;
32096;SDS011;18610;49.916;8.284;2023-06-10T14:44:43;4.20;;;3.80;;
32096;SDS011;18610;49.916;8.284;2023-06-10T14:47:09;5.32;;;4.20;;
32096;SDS011;18610;49.916;8.284;2023-06-10T14:49:36;5.45;;;4.22;;
32096;SDS011;18610;49.916;8.284;2023-06-10T14:52:03;7.07;;;4.15;;
32096;SDS011;18610;49.916;8.284;2023-06-10T14:54:31;5.35;;;3.97;;